createdAt,value
2022-07-25T00:02:07.313Z,7.47
2022-07-25T00:04:48.832Z,7.55
2022-07-25T00:07:32.623Z,6.82
2022-07-25T00:10:04.430Z,6.57
2022-07-25T00:12:32.894Z,6.88
2022-07-25T00:15:04.142Z,6.10
2022-07-25T00:17:39.815Z,6.55
2022-07-25T00:20:19.561Z,6.40
2022-07-25T00:22:50.887Z,5.80
2022-07-25T00:25:24.337Z,6.22
2022-07-25T00:27:55.302Z,6.53
2022-07-25T00:30:24.695Z,6.95
2022-07-25T00:33:02.463Z,7.07
2022-07-25T00:35:45.136Z,6.60
2022-07-25T00:38:17.490Z,6.10
2022-07-25T00:40:53.556Z,6.97
2022-07-25T00:43:30.012Z,7.25
2022-07-25T00:46:02.263Z,6.93
2022-07-25T00:48:58.006Z,7.38
2022-07-25T00:51:29.067Z,7.38
2022-07-25T00:54:01.530Z,8.23
2022-07-25T00:56:30.316Z,7.07
2022-07-25T00:59:06.823Z,7.05
2022-07-25T01:01:46.249Z,7.32
2022-07-25T01:04:49.597Z,7.20
2022-07-25T01:07:20.926Z,6.93
2022-07-25T01:09:58.082Z,6.70
2022-07-25T01:12:44.448Z,6.78
2022-07-25T01:15:21.388Z,6.55
2022-07-25T01:17:52.193Z,6.68
2022-07-25T01:20:30.180Z,7.60
2022-07-25T01:22:58.997Z,7.10
2022-07-25T01:25:37.062Z,7.00
2022-07-25T01:28:17.266Z,6.82
2022-07-25T01:30:53.334Z,7.05
2022-07-25T01:33:29.625Z,7.05
2022-07-25T01:36:03.298Z,7.28
2022-07-25T01:38:47.605Z,7.22
2022-07-25T01:41:26.658Z,6.45
2022-07-25T01:44:00.757Z,6.72
2022-07-25T01:46:34.358Z,6.57
2022-07-25T01:49:08.485Z,6.75
2022-07-25T01:51:41.164Z,7.03
2022-07-25T01:54:18.294Z,6.93
2022-07-25T01:56:52.983Z,6.60
2022-07-25T01:59:30.647Z,7.55
2022-07-25T02:02:01.283Z,7.07
2022-07-25T02:04:39.837Z,7.05
2022-07-25T02:07:24.179Z,7.72
2022-07-25T02:10:04.531Z,7.75
2022-07-25T02:15:06.981Z,7.28
2022-07-25T02:17:39.961Z,6.88
2022-07-25T02:20:12.824Z,7.43
2022-07-25T02:23:03.184Z,8.20
2022-07-25T02:25:39.200Z,8.82
2022-07-25T02:28:15.252Z,9.00
2022-07-25T02:30:43.955Z,7.88
2022-07-25T02:33:13.022Z,7.40
2022-07-25T02:35:41.877Z,8.02
2022-07-25T02:38:16.502Z,8.82
2022-07-25T02:40:52.484Z,7.32
2022-07-25T02:43:27.627Z,7.68
2022-07-25T02:45:57.026Z,6.70
2022-07-25T02:48:28.994Z,7.68
2022-07-25T02:51:02.721Z,7.18
2022-07-25T02:53:56.701Z,7.28
2022-07-25T02:56:37.197Z,7.30
2022-07-25T02:59:15.250Z,7.53
2022-07-25T03:01:46.263Z,7.78
2022-07-25T03:04:17.770Z,7.93
2022-07-25T03:06:47.404Z,7.47
2022-07-25T03:09:18.009Z,7.25
2022-07-25T03:11:52.790Z,7.07
2022-07-25T03:14:30.288Z,7.70
2022-07-25T03:17:04.285Z,8.20
2022-07-25T03:19:36.251Z,8.48
2022-07-25T03:22:07.074Z,7.78
2022-07-25T03:24:39.823Z,7.82
2022-07-25T03:27:16.713Z,9.82
2022-07-25T03:30:01.146Z,9.23
2022-07-25T03:32:32.157Z,8.57
2022-07-25T03:35:03.961Z,7.63
2022-07-25T03:37:33.052Z,9.10
2022-07-25T03:40:13.208Z,7.47
2022-07-25T03:42:44.920Z,8.23
2022-07-25T03:45:16.999Z,8.23
2022-07-25T03:48:01.483Z,8.10
2022-07-25T03:50:34.300Z,8.00
2022-07-25T03:53:10.431Z,8.00
2022-07-25T03:55:45.678Z,8.07
2022-07-25T03:58:17.082Z,6.50
2022-07-25T04:00:53.978Z,8.23
2022-07-25T04:03:26.322Z,7.88
2022-07-25T04:05:59.280Z,8.70
2022-07-25T04:08:31.732Z,7.45
2022-07-25T04:11:02.066Z,8.10
2022-07-25T04:13:36.003Z,8.50
2022-07-25T04:16:14.619Z,8.55
2022-07-25T04:18:58.162Z,8.40
2022-07-25T04:21:34.021Z,8.05
2022-07-25T04:24:12.528Z,7.95
2022-07-25T04:26:46.922Z,8.45
2022-07-25T04:29:20.140Z,7.88
2022-07-25T04:31:52.151Z,8.50
2022-07-25T04:34:26.481Z,8.73
2022-07-25T04:36:58.318Z,8.40
2022-07-25T04:39:33.418Z,9.18
2022-07-25T04:42:14.375Z,8.27
2022-07-25T04:44:43.510Z,9.07
2022-07-25T04:47:13.298Z,8.88
2022-07-25T04:49:57.741Z,8.93
2022-07-25T04:52:29.907Z,8.20
2022-07-25T04:54:59.107Z,9.85
2022-07-25T04:57:28.705Z,10.13
2022-07-25T05:00:08.133Z,9.65
2022-07-25T05:02:49.983Z,10.20
2022-07-25T05:05:22.387Z,9.23
2022-07-25T05:07:53.678Z,10.38
2022-07-25T05:15:28.108Z,10.57
2022-07-25T05:17:59.975Z,12.43
2022-07-25T05:20:37.170Z,12.82
2022-07-25T05:23:13.410Z,14.98
2022-07-25T05:25:57.610Z,13.05
2022-07-25T05:28:31.918Z,17.10
2022-07-25T05:31:06.260Z,18.27
2022-07-25T05:33:49.135Z,17.00
2022-07-25T05:36:23.584Z,17.05
2022-07-25T05:38:57.521Z,15.95
2022-07-25T05:41:28.868Z,15.23
2022-07-25T05:46:33.120Z,13.43
2022-07-25T05:49:13.827Z,15.95
2022-07-25T05:51:49.855Z,11.90
2022-07-25T05:54:30.345Z,12.52
2022-07-25T05:57:03.504Z,13.75
2022-07-25T05:59:36.391Z,13.40
2022-07-25T06:02:10.719Z,12.45
2022-07-25T06:04:46.508Z,13.18
2022-07-25T06:07:16.945Z,13.05
2022-07-25T06:09:55.290Z,12.98
2022-07-25T06:12:25.278Z,12.05
2022-07-25T06:14:57.687Z,11.85
2022-07-25T06:17:32.530Z,14.00
2022-07-25T06:20:05.311Z,12.52
2022-07-25T06:22:42.193Z,12.73
2022-07-25T06:25:24.441Z,12.75
2022-07-25T06:33:12.715Z,11.23
2022-07-25T06:35:45.664Z,11.07
2022-07-25T06:38:26.409Z,10.77
2022-07-25T06:41:12.021Z,11.15
2022-07-25T06:43:49.953Z,10.32
2022-07-25T06:46:35.839Z,10.75
2022-07-25T06:49:09.682Z,10.13
2022-07-25T06:51:46.886Z,9.70
2022-07-25T06:54:18.592Z,10.15
2022-07-25T06:56:51.000Z,8.57
2022-07-25T06:59:23.190Z,9.37
2022-07-25T07:02:00.127Z,8.63
2022-07-25T07:04:33.025Z,9.77
2022-07-25T07:07:13.127Z,9.40
2022-07-25T07:09:52.013Z,8.77
2022-07-25T07:12:23.142Z,9.35
2022-07-25T07:14:53.397Z,9.68
2022-07-25T07:20:09.257Z,8.70
2022-07-25T07:22:51.683Z,8.70
2022-07-25T07:25:28.643Z,8.60
2022-07-25T07:28:06.170Z,8.30
2022-07-25T07:33:50.067Z,7.53
2022-07-25T07:36:26.810Z,8.52
2022-07-25T07:39:04.095Z,7.65
2022-07-25T07:41:36.555Z,7.80
2022-07-25T07:44:17.223Z,8.02
2022-07-25T07:46:55.283Z,8.02
2022-07-25T07:49:28.768Z,7.65
2022-07-25T07:52:05.771Z,7.65
2022-07-25T07:54:59.296Z,7.90
2022-07-25T07:57:30.104Z,8.05
2022-07-25T08:00:11.488Z,8.82
2022-07-25T08:02:58.847Z,7.50
2022-07-25T08:05:32.805Z,8.25
2022-07-25T08:08:10.125Z,7.50
2022-07-25T08:10:43.401Z,8.23
2022-07-25T08:13:28.164Z,7.15
2022-07-25T08:16:03.317Z,7.47
2022-07-25T08:18:36.596Z,6.93
2022-07-25T08:21:08.827Z,6.13
2022-07-25T08:23:40.033Z,6.60
2022-07-25T08:26:16.705Z,7.43
2022-07-25T08:29:04.929Z,7.10
2022-07-25T08:31:39.086Z,6.88
2022-07-25T08:34:15.630Z,6.35
2022-07-25T08:36:54.874Z,6.43
2022-07-25T08:42:11.222Z,5.63
2022-07-25T08:44:48.600Z,6.07
2022-07-25T08:47:26.534Z,5.60
2022-07-25T08:49:55.078Z,6.28
2022-07-25T08:52:30.746Z,6.45
2022-07-25T08:54:59.636Z,6.20
2022-07-25T08:57:33.477Z,5.70
2022-07-25T09:00:03.489Z,5.68
2022-07-25T09:02:40.662Z,6.00
2022-07-25T09:05:11.123Z,5.20
2022-07-25T09:07:47.826Z,5.40
2022-07-25T09:10:35.080Z,5.18
2022-07-25T09:13:20.846Z,5.30
2022-07-25T09:16:01.058Z,4.80
2022-07-25T09:18:37.537Z,4.82
2022-07-25T09:21:15.961Z,4.45
2022-07-25T09:23:54.158Z,4.30
2022-07-25T09:26:25.611Z,4.50
2022-07-25T09:28:56.671Z,4.22
2022-07-25T09:31:35.076Z,4.25
2022-07-25T09:34:26.422Z,4.38
2022-07-25T09:36:56.978Z,4.53
2022-07-25T09:39:46.444Z,4.05
2022-07-25T09:42:25.230Z,4.10
2022-07-25T09:45:15.300Z,4.40
2022-07-25T09:48:16.073Z,4.57
2022-07-25T09:50:53.231Z,4.63
2022-07-25T09:53:24.158Z,4.25
2022-07-25T09:56:01.049Z,4.00
2022-07-25T09:58:40.849Z,4.32
2022-07-25T10:01:10.854Z,4.78
2022-07-25T10:04:19.189Z,4.23
2022-07-25T10:07:20.244Z,4.47
2022-07-25T10:09:54.228Z,4.53
2022-07-25T10:12:28.171Z,4.57
2022-07-25T10:15:32.176Z,4.38
2022-07-25T10:18:13.434Z,4.38
2022-07-25T10:20:47.025Z,4.18
2022-07-25T10:23:31.942Z,4.40
2022-07-25T10:26:16.021Z,3.92
2022-07-25T10:28:48.720Z,4.22
2022-07-25T10:31:51.622Z,4.03
2022-07-25T10:34:34.733Z,5.22
2022-07-25T10:37:24.529Z,4.35
2022-07-25T10:39:53.260Z,4.40
2022-07-25T10:42:36.802Z,3.78
2022-07-25T10:45:13.214Z,3.70
2022-07-25T10:47:55.185Z,4.38
2022-07-25T10:50:54.534Z,3.88
2022-07-25T10:54:02.453Z,4.00
2022-07-25T10:56:31.496Z,4.45
2022-07-25T10:59:03.023Z,4.03
2022-07-25T11:01:37.470Z,4.00
2022-07-25T11:04:12.205Z,4.32
2022-07-25T11:06:44.596Z,4.63
2022-07-25T11:09:29.744Z,4.30
2022-07-25T11:12:04.491Z,4.57
2022-07-25T11:14:43.442Z,4.75
2022-07-25T11:17:32.671Z,4.05
2022-07-25T11:20:05.767Z,4.60
2022-07-25T11:22:48.523Z,3.97
2022-07-25T11:25:21.832Z,4.20
2022-07-25T11:28:12.654Z,4.35
2022-07-25T11:33:19.851Z,4.30
2022-07-25T11:35:51.303Z,4.25
2022-07-25T11:38:33.728Z,4.05
2022-07-25T11:41:08.182Z,4.55
2022-07-25T11:43:52.573Z,4.20
2022-07-25T11:46:34.333Z,4.30
2022-07-25T11:49:09.466Z,4.15
2022-07-25T11:51:49.807Z,4.22
2022-07-25T11:54:23.865Z,3.83
2022-07-25T11:56:57.706Z,4.65
2022-07-25T11:59:26.921Z,4.35
2022-07-25T12:01:59.482Z,3.72
2022-07-25T12:04:34.185Z,4.70
2022-07-25T12:07:06.761Z,3.90
2022-07-25T12:09:38.273Z,3.95
2022-07-25T12:12:17.776Z,5.00
2022-07-25T12:14:51.786Z,3.92
2022-07-25T12:17:26.100Z,4.95
2022-07-25T12:19:57.405Z,4.07
2022-07-25T12:22:28.259Z,4.00
2022-07-25T12:25:04.418Z,3.92
2022-07-25T12:27:32.943Z,4.63
2022-07-25T12:30:07.613Z,3.88
2022-07-25T12:32:44.579Z,3.72
2022-07-25T12:35:21.554Z,3.83
2022-07-25T12:37:59.215Z,3.92
2022-07-25T12:40:31.806Z,3.78
2022-07-25T12:43:09.041Z,3.97
2022-07-25T12:45:40.022Z,4.22
2022-07-25T12:48:17.523Z,3.83
2022-07-25T12:51:00.733Z,3.97
2022-07-25T12:53:37.816Z,4.38
2022-07-25T12:58:56.770Z,3.97
2022-07-25T13:01:30.789Z,4.13
2022-07-25T13:04:03.112Z,3.80
2022-07-25T13:06:38.489Z,4.45
2022-07-25T13:09:10.650Z,4.00
2022-07-25T13:11:49.688Z,4.60
2022-07-25T13:14:19.952Z,4.00
2022-07-25T13:16:54.905Z,3.80
2022-07-25T13:19:25.841Z,4.55
2022-07-25T13:21:59.368Z,4.00
2022-07-25T13:24:31.585Z,3.72
2022-07-25T13:26:59.923Z,4.28
2022-07-25T13:29:32.907Z,3.92
2022-07-25T13:32:12.366Z,4.00
2022-07-25T13:34:50.130Z,3.95
2022-07-25T13:37:20.922Z,3.70
2022-07-25T13:40:01.132Z,3.58
2022-07-25T13:42:31.381Z,4.00
2022-07-25T13:45:02.518Z,4.65
2022-07-25T13:50:23.244Z,4.13
2022-07-25T13:52:57.195Z,4.22
2022-07-25T13:55:27.635Z,3.60
2022-07-25T13:57:59.148Z,3.72
2022-07-25T14:00:31.162Z,4.10
2022-07-25T14:03:08.689Z,3.92
2022-07-25T14:05:46.120Z,4.00
2022-07-25T14:08:29.312Z,3.88
2022-07-25T14:11:03.138Z,3.97
2022-07-25T14:13:37.417Z,3.97
2022-07-25T14:16:18.366Z,4.03
2022-07-25T14:18:52.782Z,4.15
2022-07-25T14:21:30.480Z,3.92
2022-07-25T14:24:03.720Z,4.15
2022-07-25T14:26:44.401Z,3.75
2022-07-25T14:29:25.938Z,3.72
2022-07-25T14:32:00.462Z,3.95
2022-07-25T14:34:35.448Z,3.33
2022-07-25T14:37:04.312Z,3.95
2022-07-25T14:39:36.772Z,4.25
2022-07-25T14:42:07.484Z,3.50
2022-07-25T14:44:47.179Z,3.75
2022-07-25T14:47:29.313Z,3.97
2022-07-25T14:50:01.022Z,4.03
2022-07-25T14:52:36.960Z,3.58
2022-07-25T14:55:16.905Z,3.70
2022-07-25T14:57:46.092Z,3.17
2022-07-25T15:00:29.429Z,3.35
2022-07-25T15:03:08.081Z,3.10
2022-07-25T15:05:46.391Z,3.05
2022-07-25T15:08:24.357Z,2.90
2022-07-25T15:10:55.309Z,3.28
2022-07-25T15:13:35.869Z,3.28
2022-07-25T15:16:15.587Z,3.72
2022-07-25T15:19:14.726Z,2.90
2022-07-25T15:21:38.609Z,2.92
2022-07-25T15:24:11.238Z,3.70
2022-07-25T15:26:44.145Z,2.88
2022-07-25T15:29:27.723Z,3.00
2022-07-25T15:31:56.878Z,2.90
2022-07-25T15:34:31.660Z,2.90
2022-07-25T15:37:00.357Z,2.95
2022-07-25T15:39:37.457Z,2.53
2022-07-25T15:42:11.245Z,3.10
2022-07-25T15:44:42.676Z,3.15
2022-07-25T15:47:18.665Z,3.35
2022-07-25T15:49:50.888Z,3.58
2022-07-25T15:52:24.894Z,3.10
2022-07-25T15:55:05.306Z,3.00
2022-07-25T15:57:36.928Z,3.20
2022-07-25T16:00:17.261Z,2.65
2022-07-25T16:02:49.749Z,3.28
2022-07-25T16:05:23.401Z,3.47
2022-07-25T16:08:10.178Z,3.10
2022-07-25T16:10:46.512Z,3.58
2022-07-25T16:13:18.581Z,3.83
2022-07-25T16:15:54.744Z,4.05
2022-07-25T16:18:28.221Z,3.10
2022-07-25T16:21:01.718Z,3.95
2022-07-25T16:23:45.296Z,3.90
2022-07-25T16:26:20.637Z,3.70
2022-07-25T16:29:06.104Z,3.42
2022-07-25T16:31:35.861Z,3.63
2022-07-25T16:34:14.506Z,3.60
2022-07-25T16:36:49.016Z,3.70
2022-07-25T16:39:31.931Z,3.70
2022-07-25T16:42:07.971Z,3.80
2022-07-25T16:44:50.637Z,4.57
2022-07-25T16:47:26.990Z,4.18
2022-07-25T16:50:10.395Z,4.35
2022-07-25T16:52:46.537Z,4.38
2022-07-25T16:55:22.999Z,4.07
2022-07-25T16:57:58.848Z,4.15
2022-07-25T17:00:36.915Z,4.22
2022-07-25T17:03:06.323Z,4.10
2022-07-25T17:05:43.774Z,4.18
2022-07-25T17:08:17.640Z,4.32
2022-07-25T17:10:46.488Z,4.68
2022-07-25T17:13:20.932Z,4.45
2022-07-25T17:15:51.776Z,4.40
2022-07-25T17:18:24.043Z,4.05
2022-07-25T17:21:04.880Z,3.97
2022-07-25T17:23:38.471Z,3.80
2022-07-25T17:26:09.751Z,4.20
2022-07-25T17:28:40.225Z,4.68
2022-07-25T17:31:14.060Z,4.18
2022-07-25T17:33:51.534Z,4.10
2022-07-25T17:36:30.913Z,4.63
2022-07-25T17:39:00.002Z,4.18
2022-07-25T17:41:33.643Z,4.45
2022-07-25T17:44:11.586Z,4.13
2022-07-25T17:46:47.031Z,3.90
2022-07-25T17:49:20.829Z,4.22
2022-07-25T17:52:03.709Z,4.72
2022-07-25T17:54:35.989Z,4.53
2022-07-25T17:57:06.324Z,3.90
2022-07-25T17:59:40.065Z,4.38
2022-07-25T18:02:10.649Z,4.05
2022-07-25T18:07:24.753Z,4.65
2022-07-25T18:10:00.858Z,4.55
2022-07-25T18:12:42.634Z,4.70
2022-07-25T18:15:18.270Z,4.32
2022-07-25T18:17:59.256Z,4.80
2022-07-25T18:20:32.443Z,4.28
2022-07-25T18:23:11.336Z,4.60
2022-07-25T18:25:41.494Z,4.40
2022-07-25T18:28:20.320Z,4.75
2022-07-25T18:30:53.781Z,5.07
2022-07-25T18:33:27.336Z,4.72
2022-07-25T18:35:55.660Z,4.60
2022-07-25T18:38:29.127Z,5.32
2022-07-25T18:41:26.358Z,5.38
2022-07-25T18:43:58.356Z,4.20
2022-07-25T18:46:33.644Z,5.80
2022-07-25T18:49:07.025Z,5.38
2022-07-25T18:51:38.166Z,5.03
2022-07-25T18:54:23.495Z,6.07
2022-07-25T18:56:59.604Z,6.68
2022-07-25T19:02:22.108Z,5.68
2022-07-25T19:04:56.034Z,7.28
2022-07-25T19:07:33.210Z,6.60
2022-07-25T19:10:13.307Z,7.20
2022-07-25T19:12:43.800Z,8.07
2022-07-25T19:15:18.127Z,7.60
2022-07-25T19:17:56.794Z,8.32
2022-07-25T19:20:28.920Z,7.65
2022-07-25T19:23:02.376Z,9.48
2022-07-25T19:25:47.624Z,12.68
2022-07-25T19:28:18.891Z,9.23
2022-07-25T19:30:49.717Z,5.78
2022-07-25T19:33:21.633Z,5.90
2022-07-25T19:35:50.746Z,5.18
2022-07-25T19:38:37.716Z,5.15
2022-07-25T19:41:18.957Z,4.75
2022-07-25T19:43:52.207Z,7.35
2022-07-25T19:46:32.388Z,7.30
2022-07-25T19:49:10.576Z,7.07
2022-07-25T19:51:41.632Z,6.07
2022-07-25T19:56:43.982Z,5.80
2022-07-25T19:59:15.048Z,6.22
2022-07-25T20:01:50.494Z,6.00
2022-07-25T20:04:26.674Z,5.28
2022-07-25T20:07:05.217Z,5.80
2022-07-25T20:09:36.055Z,6.15
2022-07-25T20:12:04.649Z,5.18
2022-07-25T20:14:44.098Z,5.07
2022-07-25T20:17:16.301Z,5.25
2022-07-25T20:19:48.986Z,5.55
2022-07-25T20:25:01.751Z,5.55
2022-07-25T20:27:39.194Z,5.60
2022-07-25T20:30:22.349Z,5.05
2022-07-25T20:32:54.225Z,6.43
2022-07-25T20:35:22.430Z,6.07
2022-07-25T20:37:54.131Z,6.25
2022-07-25T20:40:27.209Z,6.70
2022-07-25T20:43:00.150Z,5.75
2022-07-25T20:45:31.907Z,5.85
2022-07-25T20:48:08.855Z,5.63
2022-07-25T20:53:22.540Z,5.90
2022-07-25T20:56:01.718Z,6.05
2022-07-25T20:58:39.835Z,6.10
2022-07-25T21:01:28.328Z,7.07
2022-07-25T21:04:07.284Z,6.53
2022-07-25T21:06:42.250Z,6.55
2022-07-25T21:09:19.592Z,5.47
2022-07-25T21:11:47.909Z,6.25
2022-07-25T21:14:25.582Z,6.07
2022-07-25T21:16:56.363Z,5.97
2022-07-25T21:19:33.177Z,6.13
2022-07-25T21:22:17.433Z,5.50
2022-07-25T21:24:58.443Z,5.85
2022-07-25T21:27:29.175Z,5.80
2022-07-25T21:30:00.087Z,5.78
2022-07-25T21:32:31.016Z,6.25
2022-07-25T21:35:02.080Z,5.70
2022-07-25T21:37:38.226Z,6.32
2022-07-25T21:40:10.191Z,5.45
2022-07-25T21:42:43.077Z,6.43
2022-07-25T21:45:24.273Z,5.85
2022-07-25T21:48:02.311Z,6.28
2022-07-25T21:50:44.248Z,5.20
2022-07-25T21:53:29.917Z,6.15
2022-07-25T21:56:04.414Z,5.72
2022-07-25T21:58:38.461Z,5.90
2022-07-25T22:01:11.914Z,5.80
2022-07-25T22:03:49.117Z,6.25
2022-07-25T22:06:23.079Z,6.00
2022-07-25T22:08:59.754Z,6.65
2022-07-25T22:11:42.318Z,6.18
2022-07-25T22:14:15.974Z,5.95
2022-07-25T22:16:49.908Z,5.55
2022-07-25T22:19:22.472Z,5.95
2022-07-25T22:21:55.971Z,6.20
2022-07-25T22:24:29.513Z,5.40
2022-07-25T22:27:00.493Z,5.88
2022-07-25T22:29:39.911Z,6.10
2022-07-25T22:32:11.864Z,6.07
2022-07-25T22:34:47.033Z,6.60
2022-07-25T22:37:15.970Z,6.47
2022-07-25T22:39:49.441Z,7.50
2022-07-25T22:42:20.203Z,5.88
2022-07-25T22:44:53.010Z,5.60
2022-07-25T22:49:56.897Z,4.32
2022-07-25T22:52:31.183Z,3.83
2022-07-25T22:55:02.523Z,3.08
2022-07-25T23:00:23.635Z,2.40
2022-07-25T23:03:01.081Z,1.85
2022-07-25T23:05:40.590Z,2.17
2022-07-25T23:08:27.564Z,2.05
2022-07-25T23:10:57.167Z,2.08
2022-07-25T23:13:34.258Z,2.50
2022-07-25T23:16:14.967Z,2.90
2022-07-25T23:18:47.001Z,1.85
2022-07-25T23:21:25.819Z,2.28
2022-07-25T23:23:59.676Z,2.20
2022-07-25T23:26:31.393Z,2.13
2022-07-25T23:29:02.729Z,1.95
2022-07-25T23:34:07.763Z,2.20
2022-07-25T23:36:52.743Z,1.85
2022-07-25T23:39:29.083Z,2.75
2022-07-25T23:42:19.889Z,2.22
2022-07-25T23:44:54.110Z,2.30
2022-07-25T23:47:39.248Z,2.20
2022-07-25T23:50:13.816Z,2.13
2022-07-25T23:52:41.581Z,1.98
2022-07-25T23:55:15.262Z,2.00
2022-07-25T23:57:46.746Z,2.00
